メインページ
METAR-TAF:

METAR-TAF

空港 :

山口宇部空港

宇部, 日本

緯度: 33-57N, 経度: 131-15E, 海抜: 5m

現時点の気象観測

当レポートは1時間10分前の11:00(UTC)に作成
の風 6kt、北/北西から北東の間で変化する
気温 18°C
湿度 77%
気圧 1012 hPa
視程10km以上
高度2000ftの雲はほとんどない
高度8000ftの雲は散在している
高度10000ftの千切れ雲あり

METAR: RJDC 161100Z 01006KT 330V040 9999 FEW020 SCT080 BKN100 18/14 Q1012

時間: 21:10 (12:10 UTC)


TAF: 見つかりません

4,000以上の空港の気象観測と天気予報(METAR報とTAF報)

利用可能な観測所は地図上に黄色い丸と赤い丸で示す。

丸の上にカーソルを重ねると観測所名を参照できる。

次にクリックすると気象観測と天気予報を参照できる。

マップの切り替え:黒色「×」印の緑ボタンをクリックして拡大、「-」印の緑ボタンをクリックして縮小、緑色の三角印をクリックして隣りの地図に切り替え


METAR-TAF: